Aviation Digital Data Service (ADDS)

Output produced by METARs form (1824 UTC 17 April 2014)
found at http://aviationweather.gov/adds/metars/
 
KIAG 171720Z 1718/1818 17011KT P6SM SCT200 
     FM181200 19012KT P6SM BKN050